Aeroporto :
LOGIN :

Iscrizione | Disclaimer

   EN    FR    IT 

 










Sommario :    VFR   VFR Marginale   IFR   IFR Intensivo   IFR Molto Intensivo
Visibilità : 
Base nubi : 
>= 8 km
>= 3000ft
5 / 8 km
1000 / 3000 ft
1500m / 5 km
500 / 1000 ft
800 / 1500m
200 / 500 ft
< 800m
< 200 ft
Simboli :   Temporali  Nebbia  Neve Forte  Precipitazioni Forti  Vento > 20 kt
SIGMETs :   Varie  Temporali  Ghiacco  Turbolenza  Onda orograficha  Ceneri Vulcaniche






- Altitudine del aeroporto : 364 ft
- Codice IATA : FRA


EDDF - Frankfurt Int.

ULTIMO METAR :
  • 101250Z VRB05KT CAVOK 22/04 Q1023 NOSIG

METARs OBSOLETI :
  • 101220Z 06007KT 010V100 CAVOK 22/03 Q1024 NOSIG
  • 101150Z 02009KT 350V080 CAVOK 21/03 Q1024 NOSIG
  • 101120Z 04005KT 310V100 CAVOK 21/04 Q1024 NOSIG
  • 101050Z 06008KT 010V090 CAVOK 20/04 Q1025 NOSIG
  • 101020Z 05008KT 360V100 CAVOK 20/04 Q1025 NOSIG
  • 100950Z 05006KT 350V110 CAVOK 19/06 Q1025 NOSIG

TAF TAF EDDF
Valido dal 10 a 12 ore il 11 a 18 ore UTC


101100Z 1012/1118 03006KT CAVOK



MetMap, La meteo Aeronautica in un colpo d'occhio ! - Copyright ORBIFLY Dicembre 2007 - Disclaimer

ORBIFLY MET'MAP TEAM :

Programmazione e sviluppo : Alexandra Zaïnal
Concezione : Baudouin d'Aumeries
Aiuto per la programmazione : Marc-Olivier Méhu
Supporto tecnico e logistico : Manuel Goepfert
Aiuto per la traduzione : Arnaldo La Scala

Contatto : metmap@orbifly.com




FONTI E CREDITI :

   NOAA